sensor_id;sensor_type;location;lat;lon;timestamp;P1;durP1;ratioP1;P2;durP2;ratioP2
69979;SDS011;57318;56.232;43.944;2022-09-23T00:00:12;589.13;;;37.47;;
69979;SDS011;57318;56.232;43.944;2022-09-23T00:02:38;190.73;;;17.63;;
69979;SDS011;57318;56.232;43.944;2022-09-23T00:05:05;723.35;;;46.95;;
69979;SDS011;57318;56.232;43.944;2022-09-23T00:07:31;795.13;;;47.13;;
69979;SDS011;57318;56.232;43.944;2022-09-23T00:09:56;573.27;;;34.83;;
69979;SDS011;57318;56.232;43.944;2022-09-23T00:12:23;314.50;;;20.63;;
69979;SDS011;57318;56.232;43.944;2022-09-23T00:14:48;361.97;;;25.27;;
69979;SDS011;57318;56.232;43.944;2022-09-23T00:17:14;101.40;;;12.30;;
69979;SDS011;57318;56.232;43.944;2022-09-23T00:19:40;706.27;;;37.33;;
69979;SDS011;57318;56.232;43.944;2022-09-23T00:22:06;398.97;;;27.20;;
69979;SDS011;57318;56.232;43.944;2022-09-23T00:24:32;299.70;;;19.70;;
69979;SDS011;57318;56.232;43.944;2022-09-23T00:26:58;343.30;;;23.90;;
69979;SDS011;57318;56.232;43.944;2022-09-23T00:29:24;135.13;;;13.30;;
69979;SDS011;57318;56.232;43.944;2022-09-23T00:31:49;230.77;;;16.27;;
69979;SDS011;57318;56.232;43.944;2022-09-23T00:34:15;410.03;;;26.00;;
69979;SDS011;57318;56.232;43.944;2022-09-23T00:36:41;202.47;;;14.97;;
69979;SDS011;57318;56.232;43.944;2022-09-23T00:39:07;141.38;;;13.52;;
69979;SDS011;57318;56.232;43.944;2022-09-23T00:41:34;136.63;;;10.82;;
69979;SDS011;57318;56.232;43.944;2022-09-23T00:44:00;98.72;;;9.55;;
69979;SDS011;57318;56.232;43.944;2022-09-23T00:46:34;119.22;;;10.70;;
69979;SDS011;57318;56.232;43.944;2022-09-23T00:51:37;144.93;;;11.80;;
69979;SDS011;57318;56.232;43.944;2022-09-23T00:54:07;147.50;;;13.13;;
69979;SDS011;57318;56.232;43.944;2022-09-23T00:56:34;93.60;;;9.25;;
69979;SDS011;57318;56.232;43.944;2022-09-23T00:59:01;149.50;;;11.77;;
69979;SDS011;57318;56.232;43.944;2022-09-23T01:01:27;137.07;;;11.57;;
69979;SDS011;57318;56.232;43.944;2022-09-23T01:03:54;164.13;;;12.35;;
69979;SDS011;57318;56.232;43.944;2022-09-23T01:06:21;73.97;;;8.30;;
69979;SDS011;57318;56.232;43.944;2022-09-23T01:08:47;69.23;;;8.80;;
69979;SDS011;57318;56.232;43.944;2022-09-23T01:11:29;38.42;;;7.00;;
69979;SDS011;57318;56.232;43.944;2022-09-23T01:33:22;56.67;;;8.10;;
69979;SDS011;57318;56.232;43.944;2022-09-23T01:36:07;54.70;;;8.60;;
69979;SDS011;57318;56.232;43.944;2022-09-23T01:38:42;64.75;;;9.73;;
69979;SDS011;57318;56.232;43.944;2022-09-23T01:47:09;31.75;;;7.88;;
69979;SDS011;57318;56.232;43.944;2022-09-23T01:52:56;22.30;;;7.07;;
69979;SDS011;57318;56.232;43.944;2022-09-23T01:57:38;16.73;;;7.22;;
69979;SDS011;57318;56.232;43.944;2022-09-23T02:00:12;177.55;;;14.02;;
69979;SDS011;57318;56.232;43.944;2022-09-23T02:02:45;78.47;;;10.57;;
69979;SDS011;57318;56.232;43.944;2022-09-23T02:08:05;109.50;;;13.18;;
69979;SDS011;57318;56.232;43.944;2022-09-23T02:10:35;121.78;;;14.55;;
69979;SDS011;57318;56.232;43.944;2022-09-23T02:13:12;481.67;;;32.30;;
69979;SDS011;57318;56.232;43.944;2022-09-23T02:15:49;285.52;;;20.00;;
69979;SDS011;57318;56.232;43.944;2022-09-23T02:18:23;51.85;;;10.10;;
69979;SDS011;57318;56.232;43.944;2022-09-23T02:20:51;269.50;;;19.42;;
69979;SDS011;57318;56.232;43.944;2022-09-23T02:23:29;65.93;;;10.52;;
69979;SDS011;57318;56.232;43.944;2022-09-23T02:26:02;115.63;;;12.68;;
69979;SDS011;57318;56.232;43.944;2022-09-23T02:28:41;160.32;;;13.52;;
69979;SDS011;57318;56.232;43.944;2022-09-23T02:34:41;69.32;;;8.32;;
69979;SDS011;57318;56.232;43.944;2022-09-23T02:45:47;43.83;;;7.65;;
69979;SDS011;57318;56.232;43.944;2022-09-23T02:48:18;75.60;;;9.23;;
69979;SDS011;57318;56.232;43.944;2022-09-23T02:50:47;23.08;;;6.80;;
69979;SDS011;57318;56.232;43.944;2022-09-23T02:53:13;65.22;;;9.30;;
69979;SDS011;57318;56.232;43.944;2022-09-23T02:55:42;21.50;;;7.22;;
69979;SDS011;57318;56.232;43.944;2022-09-23T02:58:08;84.18;;;9.98;;
69979;SDS011;57318;56.232;43.944;2022-09-23T03:03:43;111.65;;;11.43;;
69979;SDS011;57318;56.232;43.944;2022-09-23T03:14:40;15.40;;;6.90;;
69979;SDS011;57318;56.232;43.944;2022-09-23T03:17:13;133.35;;;13.80;;
69979;SDS011;57318;56.232;43.944;2022-09-23T03:22:35;16.23;;;7.15;;
69979;SDS011;57318;56.232;43.944;2022-09-23T03:25:05;13.98;;;6.88;;
69979;SDS011;57318;56.232;43.944;2022-09-23T03:27:36;41.72;;;7.80;;
69979;SDS011;57318;56.232;43.944;2022-09-23T03:30:06;54.25;;;8.80;;
69979;SDS011;57318;56.232;43.944;2022-09-23T03:32:32;17.38;;;7.47;;
69979;SDS011;57318;56.232;43.944;2022-09-23T03:35:01;137.88;;;12.95;;
69979;SDS011;57318;56.232;43.944;2022-09-23T03:37:31;56.72;;;9.65;;
69979;SDS011;57318;56.232;43.944;2022-09-23T03:40:06;16.10;;;7.57;;
69979;SDS011;57318;56.232;43.944;2022-09-23T03:42:45;64.43;;;10.02;;
69979;SDS011;57318;56.232;43.944;2022-09-23T03:45:15;23.05;;;8.85;;
69979;SDS011;57318;56.232;43.944;2022-09-23T03:47:45;17.95;;;8.15;;
69979;SDS011;57318;56.232;43.944;2022-09-23T03:50:12;26.17;;;9.00;;
69979;SDS011;57318;56.232;43.944;2022-09-23T03:52:38;59.90;;;12.70;;
69979;SDS011;57318;56.232;43.944;2022-09-23T03:55:05;186.52;;;17.65;;
69979;SDS011;57318;56.232;43.944;2022-09-23T03:57:31;99.05;;;13.68;;
69979;SDS011;57318;56.232;43.944;2022-09-23T03:59:57;41.40;;;12.13;;
69979;SDS011;57318;56.232;43.944;2022-09-23T04:02:22;73.40;;;13.87;;
69979;SDS011;57318;56.232;43.944;2022-09-23T04:04:48;149.70;;;16.40;;
69979;SDS011;57318;56.232;43.944;2022-09-23T04:07:14;39.13;;;11.47;;
69979;SDS011;57318;56.232;43.944;2022-09-23T04:09:40;28.25;;;11.43;;
69979;SDS011;57318;56.232;43.944;2022-09-23T04:12:05;58.83;;;11.43;;
69979;SDS011;57318;56.232;43.944;2022-09-23T04:14:32;41.88;;;9.15;;
69979;SDS011;57318;56.232;43.944;2022-09-23T04:16:58;118.00;;;11.73;;
69979;SDS011;57318;56.232;43.944;2022-09-23T04:19:23;36.37;;;8.47;;
69979;SDS011;57318;56.232;43.944;2022-09-23T04:21:49;196.13;;;15.20;;
69979;SDS011;57318;56.232;43.944;2022-09-23T04:24:15;105.60;;;12.60;;
69979;SDS011;57318;56.232;43.944;2022-09-23T04:26:41;67.10;;;9.35;;
69979;SDS011;57318;56.232;43.944;2022-09-23T04:29:07;68.40;;;9.93;;
69979;SDS011;57318;56.232;43.944;2022-09-23T04:31:34;101.43;;;12.20;;
69979;SDS011;57318;56.232;43.944;2022-09-23T04:34:00;79.17;;;10.37;;
69979;SDS011;57318;56.232;43.944;2022-09-23T04:36:26;56.03;;;9.20;;
69979;SDS011;57318;56.232;43.944;2022-09-23T04:38:53;50.58;;;8.43;;
69979;SDS011;57318;56.232;43.944;2022-09-23T04:41:19;75.07;;;9.07;;
69979;SDS011;57318;56.232;43.944;2022-09-23T04:43:45;57.78;;;8.23;;
69979;SDS011;57318;56.232;43.944;2022-09-23T04:46:11;48.63;;;7.70;;
69979;SDS011;57318;56.232;43.944;2022-09-23T04:48:39;24.50;;;7.40;;
69979;SDS011;57318;56.232;43.944;2022-09-23T04:51:09;23.52;;;7.22;;
69979;SDS011;57318;56.232;43.944;2022-09-23T04:53:38;37.83;;;7.20;;
69979;SDS011;57318;56.232;43.944;2022-09-23T04:56:07;190.25;;;14.70;;
69979;SDS011;57318;56.232;43.944;2022-09-23T04:58:36;92.63;;;10.88;;
69979;SDS011;57318;56.232;43.944;2022-09-23T05:03:35;19.80;;;6.95;;
69979;SDS011;57318;56.232;43.944;2022-09-23T05:06:01;12.60;;;6.20;;
69979;SDS011;57318;56.232;43.944;2022-09-23T05:08:26;112.60;;;11.37;;
69979;SDS011;57318;56.232;43.944;2022-09-23T05:10:56;17.98;;;7.43;;
69979;SDS011;57318;56.232;43.944;2022-09-23T05:13:22;10.63;;;6.20;;
69979;SDS011;57318;56.232;43.944;2022-09-23T05:15:48;11.03;;;6.57;;
69979;SDS011;57318;56.232;43.944;2022-09-23T05:18:14;15.97;;;7.57;;
69979;SDS011;57318;56.232;43.944;2022-09-23T05:20:40;24.33;;;8.07;;
69979;SDS011;57318;56.232;43.944;2022-09-23T05:23:05;58.33;;;9.60;;
69979;SDS011;57318;56.232;43.944;2022-09-23T05:25:31;22.23;;;7.40;;
69979;SDS011;57318;56.232;43.944;2022-09-23T05:27:56;12.80;;;7.10;;
69979;SDS011;57318;56.232;43.944;2022-09-23T05:30:22;35.73;;;7.27;;
69979;SDS011;57318;56.232;43.944;2022-09-23T05:32:47;14.83;;;6.30;;
69979;SDS011;57318;56.232;43.944;2022-09-23T05:35:13;67.17;;;8.40;;
69979;SDS011;57318;56.232;43.944;2022-09-23T05:37:39;9.03;;;5.87;;
69979;SDS011;57318;56.232;43.944;2022-09-23T05:40:04;131.63;;;12.27;;
69979;SDS011;57318;56.232;43.944;2022-09-23T05:42:30;33.63;;;8.07;;
69979;SDS011;57318;56.232;43.944;2022-09-23T05:44:56;17.60;;;7.97;;
69979;SDS011;57318;56.232;43.944;2022-09-23T05:47:21;28.00;;;7.57;;
69979;SDS011;57318;56.232;43.944;2022-09-23T05:49:47;15.13;;;6.63;;
69979;SDS011;57318;56.232;43.944;2022-09-23T05:52:13;13.47;;;6.63;;
69979;SDS011;57318;56.232;43.944;2022-09-23T05:54:38;14.50;;;7.17;;
69979;SDS011;57318;56.232;43.944;2022-09-23T05:57:05;13.25;;;6.47;;
69979;SDS011;57318;56.232;43.944;2022-09-23T05:59:30;10.30;;;6.03;;
69979;SDS011;57318;56.232;43.944;2022-09-23T06:01:56;15.13;;;8.40;;
69979;SDS011;57318;56.232;43.944;2022-09-23T06:04:23;12.68;;;7.65;;
69979;SDS011;57318;56.232;43.944;2022-09-23T06:06:48;9.27;;;6.27;;
69979;SDS011;57318;56.232;43.944;2022-09-23T06:09:14;10.00;;;6.50;;
69979;SDS011;57318;56.232;43.944;2022-09-23T06:11:40;25.33;;;9.37;;
69979;SDS011;57318;56.232;43.944;2022-09-23T06:14:06;21.55;;;10.55;;
69979;SDS011;57318;56.232;43.944;2022-09-23T06:16:35;16.95;;;8.18;;
69979;SDS011;57318;56.232;43.944;2022-09-23T06:19:01;14.80;;;7.40;;
69979;SDS011;57318;56.232;43.944;2022-09-23T06:21:31;13.02;;;5.00;;
69979;SDS011;57318;56.232;43.944;2022-09-23T06:23:58;8.77;;;4.78;;
69979;SDS011;57318;56.232;43.944;2022-09-23T06:26:24;7.60;;;4.03;;
69979;SDS011;57318;56.232;43.944;2022-09-23T06:28:51;8.23;;;4.43;;
69979;SDS011;57318;56.232;43.944;2022-09-23T06:31:17;7.97;;;4.83;;
69979;SDS011;57318;56.232;43.944;2022-09-23T06:33:43;7.53;;;4.93;;
69979;SDS011;57318;56.232;43.944;2022-09-23T06:36:10;8.27;;;4.97;;
69979;SDS011;57318;56.232;43.944;2022-09-23T06:38:38;10.60;;;5.35;;
69979;SDS011;57318;56.232;43.944;2022-09-23T06:41:12;7.15;;;3.78;;
69979;SDS011;57318;56.232;43.944;2022-09-23T06:43:38;5.30;;;3.60;;
69979;SDS011;57318;56.232;43.944;2022-09-23T06:46:04;8.67;;;4.30;;
69979;SDS011;57318;56.232;43.944;2022-09-23T06:48:31;6.10;;;4.13;;
69979;SDS011;57318;56.232;43.944;2022-09-23T06:51:01;5.40;;;3.78;;
69979;SDS011;57318;56.232;43.944;2022-09-23T06:53:29;8.02;;;4.30;;
69979;SDS011;57318;56.232;43.944;2022-09-23T06:56:00;5.45;;;3.72;;
69979;SDS011;57318;56.232;43.944;2022-09-23T06:58:28;6.35;;;3.75;;
69979;SDS011;57318;56.232;43.944;2022-09-23T07:01:08;6.28;;;4.22;;
69979;SDS011;57318;56.232;43.944;2022-09-23T07:03:40;7.00;;;4.05;;
69979;SDS011;57318;56.232;43.944;2022-09-23T07:06:05;6.33;;;4.10;;
69979;SDS011;57318;56.232;43.944;2022-09-23T07:08:31;10.50;;;4.50;;
69979;SDS011;57318;56.232;43.944;2022-09-23T07:10:59;7.35;;;4.70;;
69979;SDS011;57318;56.232;43.944;2022-09-23T07:13:26;6.40;;;4.00;;
69979;SDS011;57318;56.232;43.944;2022-09-23T07:15:54;6.95;;;4.45;;
69979;SDS011;57318;56.232;43.944;2022-09-23T07:18:22;6.05;;;3.72;;
69979;SDS011;57318;56.232;43.944;2022-09-23T07:20:52;5.93;;;3.60;;
69979;SDS011;57318;56.232;43.944;2022-09-23T07:23:22;4.28;;;2.90;;
69979;SDS011;57318;56.232;43.944;2022-09-23T07:25:48;5.10;;;3.80;;
69979;SDS011;57318;56.232;43.944;2022-09-23T07:28:18;4.75;;;3.03;;
69979;SDS011;57318;56.232;43.944;2022-09-23T07:30:44;6.13;;;3.13;;
69979;SDS011;57318;56.232;43.944;2022-09-23T07:33:10;4.20;;;3.30;;
69979;SDS011;57318;56.232;43.944;2022-09-23T07:35:40;5.03;;;3.30;;
69979;SDS011;57318;56.232;43.944;2022-09-23T07:38:07;4.38;;;2.85;;
69979;SDS011;57318;56.232;43.944;2022-09-23T07:40:34;5.07;;;2.60;;
69979;SDS011;57318;56.232;43.944;2022-09-23T07:43:00;3.23;;;2.57;;
69979;SDS011;57318;56.232;43.944;2022-09-23T07:45:28;5.53;;;2.47;;
69979;SDS011;57318;56.232;43.944;2022-09-23T07:47:56;5.00;;;2.97;;
69979;SDS011;57318;56.232;43.944;2022-09-23T07:50:21;3.33;;;2.80;;
69979;SDS011;57318;56.232;43.944;2022-09-23T07:52:47;2.57;;;2.30;;
69979;SDS011;57318;56.232;43.944;2022-09-23T07:55:19;4.68;;;3.22;;
69979;SDS011;57318;56.232;43.944;2022-09-23T07:57:45;4.60;;;3.40;;
69979;SDS011;57318;56.232;43.944;2022-09-23T08:00:11;6.13;;;3.63;;
69979;SDS011;57318;56.232;43.944;2022-09-23T08:02:38;6.15;;;3.50;;
69979;SDS011;57318;56.232;43.944;2022-09-23T08:05:04;4.63;;;3.28;;
69979;SDS011;57318;56.232;43.944;2022-09-23T08:07:31;4.38;;;2.75;;
69979;SDS011;57318;56.232;43.944;2022-09-23T08:09:59;5.68;;;2.90;;
69979;SDS011;57318;56.232;43.944;2022-09-23T08:14:51;4.00;;;2.92;;
69979;SDS011;57318;56.232;43.944;2022-09-23T08:17:17;4.77;;;3.07;;
69979;SDS011;57318;56.232;43.944;2022-09-23T08:19:44;5.23;;;3.67;;
69979;SDS011;57318;56.232;43.944;2022-09-23T08:24:36;5.78;;;3.05;;
69979;SDS011;57318;56.232;43.944;2022-09-23T08:27:02;3.88;;;3.10;;
69979;SDS011;57318;56.232;43.944;2022-09-23T08:29:28;5.80;;;2.88;;
69979;SDS011;57318;56.232;43.944;2022-09-23T08:31:54;4.60;;;3.30;;
69979;SDS011;57318;56.232;43.944;2022-09-23T08:34:21;4.80;;;3.30;;
69979;SDS011;57318;56.232;43.944;2022-09-23T08:36:48;6.53;;;3.35;;
69979;SDS011;57318;56.232;43.944;2022-09-23T08:39:15;4.72;;;3.45;;
69979;SDS011;57318;56.232;43.944;2022-09-23T08:41:56;5.53;;;3.50;;
69979;SDS011;57318;56.232;43.944;2022-09-23T08:44:42;5.18;;;3.45;;
69979;SDS011;57318;56.232;43.944;2022-09-23T08:47:16;6.95;;;4.32;;
69979;SDS011;57318;56.232;43.944;2022-09-23T08:49:52;7.82;;;4.15;;
69979;SDS011;57318;56.232;43.944;2022-09-23T08:52:23;5.70;;;4.20;;
69979;SDS011;57318;56.232;43.944;2022-09-23T08:55:10;6.18;;;3.55;;
69979;SDS011;57318;56.232;43.944;2022-09-23T08:57:40;7.00;;;4.13;;
69979;SDS011;57318;56.232;43.944;2022-09-23T09:00:20;6.95;;;4.75;;
69979;SDS011;57318;56.232;43.944;2022-09-23T09:02:52;6.05;;;4.35;;
69979;SDS011;57318;56.232;43.944;2022-09-23T09:05:22;5.93;;;4.32;;
69979;SDS011;57318;56.232;43.944;2022-09-23T09:07:50;6.25;;;4.30;;
69979;SDS011;57318;56.232;43.944;2022-09-23T09:10:22;7.57;;;5.55;;
69979;SDS011;57318;56.232;43.944;2022-09-23T09:13:04;6.90;;;5.15;;
69979;SDS011;57318;56.232;43.944;2022-09-23T09:15:44;8.57;;;5.22;;
69979;SDS011;57318;56.232;43.944;2022-09-23T09:18:20;8.93;;;5.03;;
69979;SDS011;57318;56.232;43.944;2022-09-23T09:20:58;8.87;;;5.70;;
69979;SDS011;57318;56.232;43.944;2022-09-23T09:26:03;8.02;;;5.40;;
69979;SDS011;57318;56.232;43.944;2022-09-23T09:39:15;4.85;;;3.88;;
69979;SDS011;57318;56.232;43.944;2022-09-23T09:41:44;5.10;;;3.87;;
69979;SDS011;57318;56.232;43.944;2022-09-23T09:44:24;6.45;;;4.50;;
69979;SDS011;57318;56.232;43.944;2022-09-23T09:52:35;6.70;;;3.97;;
69979;SDS011;57318;56.232;43.944;2022-09-23T09:57:52;6.78;;;4.70;;
69979;SDS011;57318;56.232;43.944;2022-09-23T10:02:52;10.18;;;6.90;;
69979;SDS011;57318;56.232;43.944;2022-09-23T10:05:27;11.70;;;7.88;;
69979;SDS011;57318;56.232;43.944;2022-09-23T10:08:14;11.65;;;7.68;;
69979;SDS011;57318;56.232;43.944;2022-09-23T10:11:03;12.90;;;7.80;;
69979;SDS011;57318;56.232;43.944;2022-09-23T10:13:39;9.60;;;6.28;;
69979;SDS011;57318;56.232;43.944;2022-09-23T10:16:06;10.15;;;6.03;;
69979;SDS011;57318;56.232;43.944;2022-09-23T10:18:37;10.45;;;6.15;;
69979;SDS011;57318;56.232;43.944;2022-09-23T10:21:19;7.45;;;5.68;;
69979;SDS011;57318;56.232;43.944;2022-09-23T10:23:47;9.85;;;5.93;;
69979;SDS011;57318;56.232;43.944;2022-09-23T10:26:29;10.30;;;6.45;;
69979;SDS011;57318;56.232;43.944;2022-09-23T10:29:00;9.85;;;6.00;;
69979;SDS011;57318;56.232;43.944;2022-09-23T10:31:28;8.70;;;5.28;;
69979;SDS011;57318;56.232;43.944;2022-09-23T10:34:02;7.72;;;5.15;;
69979;SDS011;57318;56.232;43.944;2022-09-23T10:36:54;7.20;;;4.50;;
69979;SDS011;57318;56.232;43.944;2022-09-23T10:39:27;7.70;;;4.65;;
69979;SDS011;57318;56.232;43.944;2022-09-23T10:42:20;6.47;;;4.45;;
69979;SDS011;57318;56.232;43.944;2022-09-23T10:48:28;5.55;;;3.83;;
69979;SDS011;57318;56.232;43.944;2022-09-23T10:51:03;6.18;;;4.15;;
69979;SDS011;57318;56.232;43.944;2022-09-23T11:01:55;8.60;;;4.88;;
69979;SDS011;57318;56.232;43.944;2022-09-23T11:10:35;9.13;;;5.32;;
69979;SDS011;57318;56.232;43.944;2022-09-23T11:18:53;6.95;;;5.25;;
69979;SDS011;57318;56.232;43.944;2022-09-23T11:24:16;8.70;;;4.55;;
69979;SDS011;57318;56.232;43.944;2022-09-23T11:30:11;6.18;;;3.83;;
69979;SDS011;57318;56.232;43.944;2022-09-23T11:37:42;5.77;;;4.20;;
69979;SDS011;57318;56.232;43.944;2022-09-23T11:40:16;6.97;;;4.15;;
69979;SDS011;57318;56.232;43.944;2022-09-23T11:43:06;5.60;;;3.85;;
69979;SDS011;57318;56.232;43.944;2022-09-23T11:48:20;6.70;;;4.18;;
69979;SDS011;57318;56.232;43.944;2022-09-23T11:50:56;7.82;;;4.85;;
69979;SDS011;57318;56.232;43.944;2022-09-23T11:53:46;8.43;;;4.65;;
69979;SDS011;57318;56.232;43.944;2022-09-23T11:56:27;6.93;;;4.10;;
69979;SDS011;57318;56.232;43.944;2022-09-23T12:01:36;5.53;;;3.72;;
69979;SDS011;57318;56.232;43.944;2022-09-23T12:04:42;9.75;;;4.20;;
69979;SDS011;57318;56.232;43.944;2022-09-23T12:09:48;6.72;;;4.40;;
69979;SDS011;57318;56.232;43.944;2022-09-23T12:12:29;5.20;;;4.03;;
69979;SDS011;57318;56.232;43.944;2022-09-23T12:26:29;7.28;;;3.70;;
69979;SDS011;57318;56.232;43.944;2022-09-23T12:29:00;4.88;;;3.63;;
69979;SDS011;57318;56.232;43.944;2022-09-23T12:31:29;6.40;;;3.80;;
69979;SDS011;57318;56.232;43.944;2022-09-23T12:33:56;5.68;;;3.28;;
69979;SDS011;57318;56.232;43.944;2022-09-23T12:39:15;5.68;;;3.75;;
69979;SDS011;57318;56.232;43.944;2022-09-23T12:41:49;8.32;;;4.00;;
69979;SDS011;57318;56.232;43.944;2022-09-23T12:44:28;5.85;;;3.90;;
69979;SDS011;57318;56.232;43.944;2022-09-23T12:49:50;6.35;;;4.30;;
69979;SDS011;57318;56.232;43.944;2022-09-23T12:54:44;7.20;;;5.03;;
69979;SDS011;57318;56.232;43.944;2022-09-23T13:02:50;13.52;;;8.52;;
69979;SDS011;57318;56.232;43.944;2022-09-23T13:05:46;14.85;;;9.68;;
69979;SDS011;57318;56.232;43.944;2022-09-23T13:08:35;8.85;;;6.68;;
69979;SDS011;57318;56.232;43.944;2022-09-23T13:11:04;8.77;;;5.97;;
69979;SDS011;57318;56.232;43.944;2022-09-23T13:13:39;10.50;;;5.90;;
69979;SDS011;57318;56.232;43.944;2022-09-23T13:16:20;8.30;;;5.13;;
69979;SDS011;57318;56.232;43.944;2022-09-23T13:18:59;6.25;;;4.45;;
69979;SDS011;57318;56.232;43.944;2022-09-23T13:29:31;7.38;;;4.10;;
69979;SDS011;57318;56.232;43.944;2022-09-23T13:32:02;6.90;;;4.35;;
69979;SDS011;57318;56.232;43.944;2022-09-23T13:34:30;5.53;;;3.85;;
69979;SDS011;57318;56.232;43.944;2022-09-23T13:37:10;8.82;;;3.65;;
69979;SDS011;57318;56.232;43.944;2022-09-23T13:39:41;7.05;;;3.90;;
69979;SDS011;57318;56.232;43.944;2022-09-23T13:42:07;7.00;;;4.43;;
69979;SDS011;57318;56.232;43.944;2022-09-23T13:44:41;6.03;;;4.10;;
69979;SDS011;57318;56.232;43.944;2022-09-23T13:47:09;5.23;;;3.73;;
69979;SDS011;57318;56.232;43.944;2022-09-23T13:49:37;5.22;;;3.20;;
69979;SDS011;57318;56.232;43.944;2022-09-23T13:52:05;3.92;;;2.90;;
69979;SDS011;57318;56.232;43.944;2022-09-23T13:54:52;5.95;;;3.35;;
69979;SDS011;57318;56.232;43.944;2022-09-23T13:59:50;6.50;;;3.72;;
69979;SDS011;57318;56.232;43.944;2022-09-23T14:02:15;4.53;;;3.50;;
69979;SDS011;57318;56.232;43.944;2022-09-23T14:04:42;6.88;;;3.80;;
69979;SDS011;57318;56.232;43.944;2022-09-23T14:07:08;5.82;;;3.60;;
69979;SDS011;57318;56.232;43.944;2022-09-23T14:09:39;4.28;;;3.45;;
69979;SDS011;57318;56.232;43.944;2022-09-23T14:12:11;6.45;;;4.05;;
69979;SDS011;57318;56.232;43.944;2022-09-23T14:14:39;5.32;;;3.80;;
69979;SDS011;57318;56.232;43.944;2022-09-23T14:17:06;9.23;;;5.00;;
69979;SDS011;57318;56.232;43.944;2022-09-23T14:19:34;8.52;;;4.80;;
69979;SDS011;57318;56.232;43.944;2022-09-23T14:22:01;5.97;;;4.25;;
69979;SDS011;57318;56.232;43.944;2022-09-23T14:24:31;5.97;;;4.28;;
69979;SDS011;57318;56.232;43.944;2022-09-23T14:26:59;5.72;;;4.05;;
69979;SDS011;57318;56.232;43.944;2022-09-23T14:29:35;6.25;;;4.40;;
69979;SDS011;57318;56.232;43.944;2022-09-23T14:34:48;6.97;;;4.43;;
69979;SDS011;57318;56.232;43.944;2022-09-23T14:40:01;6.97;;;4.30;;
69979;SDS011;57318;56.232;43.944;2022-09-23T14:42:30;7.15;;;4.82;;
69979;SDS011;57318;56.232;43.944;2022-09-23T14:45:02;6.60;;;4.50;;
69979;SDS011;57318;56.232;43.944;2022-09-23T14:47:30;6.90;;;4.50;;
69979;SDS011;57318;56.232;43.944;2022-09-23T14:49:59;9.23;;;4.97;;
69979;SDS011;57318;56.232;43.944;2022-09-23T14:52:49;10.32;;;4.95;;
69979;SDS011;57318;56.232;43.944;2022-09-23T14:55:16;9.48;;;5.10;;
69979;SDS011;57318;56.232;43.944;2022-09-23T14:57:42;11.35;;;5.18;;
69979;SDS011;57318;56.232;43.944;2022-09-23T15:00:15;9.63;;;4.95;;
69979;SDS011;57318;56.232;43.944;2022-09-23T15:03:10;11.05;;;4.95;;
69979;SDS011;57318;56.232;43.944;2022-09-23T15:08:17;13.40;;;6.20;;
69979;SDS011;57318;56.232;43.944;2022-09-23T15:10:46;12.27;;;6.22;;
69979;SDS011;57318;56.232;43.944;2022-09-23T15:13:22;15.90;;;6.30;;
69979;SDS011;57318;56.232;43.944;2022-09-23T15:15:51;18.33;;;6.63;;
69979;SDS011;57318;56.232;43.944;2022-09-23T15:18:23;12.57;;;6.63;;
69979;SDS011;57318;56.232;43.944;2022-09-23T15:20:52;12.85;;;6.70;;
69979;SDS011;57318;56.232;43.944;2022-09-23T15:23:32;27.05;;;7.65;;
69979;SDS011;57318;56.232;43.944;2022-09-23T15:26:10;44.75;;;7.70;;
69979;SDS011;57318;56.232;43.944;2022-09-23T15:28:39;25.40;;;7.53;;
69979;SDS011;57318;56.232;43.944;2022-09-23T15:31:10;120.03;;;11.63;;
69979;SDS011;57318;56.232;43.944;2022-09-23T15:33:45;124.20;;;13.15;;
69979;SDS011;57318;56.232;43.944;2022-09-23T15:36:18;112.47;;;12.18;;
69979;SDS011;57318;56.232;43.944;2022-09-23T15:38:50;64.57;;;8.25;;
69979;SDS011;57318;56.232;43.944;2022-09-23T15:41:16;132.80;;;12.63;;
69979;SDS011;57318;56.232;43.944;2022-09-23T15:43:42;280.63;;;19.83;;
69979;SDS011;57318;56.232;43.944;2022-09-23T15:46:11;144.93;;;12.60;;
69979;SDS011;57318;56.232;43.944;2022-09-23T15:48:43;289.75;;;21.48;;
69979;SDS011;57318;56.232;43.944;2022-09-23T15:51:19;115.93;;;11.73;;
69979;SDS011;57318;56.232;43.944;2022-09-23T15:53:44;179.40;;;16.00;;
69979;SDS011;57318;56.232;43.944;2022-09-23T15:56:11;143.50;;;12.25;;
69979;SDS011;57318;56.232;43.944;2022-09-23T15:58:37;127.57;;;13.40;;
69979;SDS011;57318;56.232;43.944;2022-09-23T16:01:03;162.50;;;15.10;;
69979;SDS011;57318;56.232;43.944;2022-09-23T16:03:29;264.00;;;21.23;;
69979;SDS011;57318;56.232;43.944;2022-09-23T16:05:56;111.40;;;12.03;;
69979;SDS011;57318;56.232;43.944;2022-09-23T16:08:24;99.20;;;10.65;;
69979;SDS011;57318;56.232;43.944;2022-09-23T16:10:51;172.10;;;15.82;;
69979;SDS011;57318;56.232;43.944;2022-09-23T16:13:18;100.28;;;12.50;;
69979;SDS011;57318;56.232;43.944;2022-09-23T16:15:44;373.43;;;28.47;;
69979;SDS011;57318;56.232;43.944;2022-09-23T16:18:10;147.60;;;15.90;;
69979;SDS011;57318;56.232;43.944;2022-09-23T16:20:38;248.57;;;21.23;;
69979;SDS011;57318;56.232;43.944;2022-09-23T16:23:17;280.10;;;19.55;;
69979;SDS011;57318;56.232;43.944;2022-09-23T16:26:00;225.63;;;19.70;;
69979;SDS011;57318;56.232;43.944;2022-09-23T16:28:28;88.25;;;13.60;;
69979;SDS011;57318;56.232;43.944;2022-09-23T16:30:54;110.37;;;12.57;;
69979;SDS011;57318;56.232;43.944;2022-09-23T16:33:19;176.40;;;14.07;;
69979;SDS011;57318;56.232;43.944;2022-09-23T16:35:45;128.43;;;12.17;;
69979;SDS011;57318;56.232;43.944;2022-09-23T16:38:10;81.07;;;8.27;;
69979;SDS011;57318;56.232;43.944;2022-09-23T16:40:36;302.63;;;22.43;;
69979;SDS011;57318;56.232;43.944;2022-09-23T16:43:02;125.47;;;12.07;;
69979;SDS011;57318;56.232;43.944;2022-09-23T16:45:29;149.60;;;12.90;;
69979;SDS011;57318;56.232;43.944;2022-09-23T16:47:55;102.73;;;11.63;;
69979;SDS011;57318;56.232;43.944;2022-09-23T16:50:21;198.30;;;16.47;;
69979;SDS011;57318;56.232;43.944;2022-09-23T16:55:15;18.05;;;6.05;;
69979;SDS011;57318;56.232;43.944;2022-09-23T16:57:41;86.43;;;10.68;;
69979;SDS011;57318;56.232;43.944;2022-09-23T17:00:11;177.40;;;13.77;;
69979;SDS011;57318;56.232;43.944;2022-09-23T17:02:57;30.10;;;6.78;;
69979;SDS011;57318;56.232;43.944;2022-09-23T17:05:41;70.85;;;8.55;;
69979;SDS011;57318;56.232;43.944;2022-09-23T17:08:11;72.63;;;9.65;;
69979;SDS011;57318;56.232;43.944;2022-09-23T17:10:42;73.93;;;9.70;;
69979;SDS011;57318;56.232;43.944;2022-09-23T17:13:10;79.72;;;11.40;;
69979;SDS011;57318;56.232;43.944;2022-09-23T17:15:41;140.07;;;13.48;;
69979;SDS011;57318;56.232;43.944;2022-09-23T17:18:08;72.68;;;9.63;;
69979;SDS011;57318;56.232;43.944;2022-09-23T17:20:34;38.13;;;11.40;;
69979;SDS011;57318;56.232;43.944;2022-09-23T17:23:01;71.32;;;21.70;;
69979;SDS011;57318;56.232;43.944;2022-09-23T17:25:28;68.13;;;16.10;;
69979;SDS011;57318;56.232;43.944;2022-09-23T17:27:54;45.63;;;15.83;;
69979;SDS011;57318;56.232;43.944;2022-09-23T17:30:20;110.23;;;14.97;;
69979;SDS011;57318;56.232;43.944;2022-09-23T17:32:45;115.90;;;13.30;;
69979;SDS011;57318;56.232;43.944;2022-09-23T17:35:11;35.50;;;7.60;;
69979;SDS011;57318;56.232;43.944;2022-09-23T17:37:37;18.40;;;6.57;;
69979;SDS011;57318;56.232;43.944;2022-09-23T17:40:02;49.77;;;7.90;;